createdAt,value
2023-04-10T00:01:05.764Z,84091.88
2023-04-10T00:04:09.065Z,84088.75
2023-04-10T00:07:11.651Z,84090.34
2023-04-10T00:10:14.299Z,84093.47
2023-04-10T00:13:16.884Z,84091.91
2023-04-10T00:16:20.668Z,84095.03
2023-04-10T00:19:23.155Z,84095.09
2023-04-10T00:22:26.633Z,84095.06
2023-04-10T00:25:29.050Z,84095.06
2023-04-10T00:28:31.713Z,84101.41
2023-04-10T00:31:34.221Z,84102.19
2023-04-10T00:34:36.920Z,84106.12
2023-04-10T00:37:39.502Z,84109.28
2023-04-10T00:40:42.193Z,84107.72
2023-04-10T00:43:45.491Z,84114.03
2023-04-10T00:46:48.371Z,84112.50
2023-04-10T00:49:50.828Z,84111.69
2023-04-10T00:52:53.641Z,84114.03
2023-04-10T00:55:57.322Z,84110.88
2023-04-10T00:59:00.366Z,84112.47
2023-04-10T01:02:03.221Z,84116.41
2023-04-10T01:05:06.956Z,84114.03
2023-04-10T01:08:33.779Z,84110.88
2023-04-10T01:11:42.571Z,84112.47
2023-04-10T01:15:10.740Z,84114.03
2023-04-10T01:18:46.569Z,84102.97
2023-04-10T01:21:49.645Z,84102.97
2023-04-10T01:25:04.249Z,84104.56
2023-04-10T01:28:19.246Z,84101.41
2023-04-10T01:31:46.021Z,84104.56
2023-04-10T01:34:51.856Z,84104.56
2023-04-10T01:37:58.123Z,84112.50
2023-04-10T01:41:01.970Z,84112.47
2023-04-10T01:44:07.572Z,84112.47
2023-04-10T01:47:15.374Z,84112.47
2023-04-10T01:50:20.322Z,84117.22
2023-04-10T01:53:24.691Z,84121.94
2023-04-10T01:56:28.762Z,84118.00
2023-04-10T01:59:31.438Z,84120.34
2023-04-10T02:02:34.965Z,84127.47
2023-04-10T02:06:03.131Z,84125.94
2023-04-10T02:09:10.404Z,84134.59
2023-04-10T02:12:21.715Z,84142.53
2023-04-10T02:15:27.390Z,84141.72
2023-04-10T02:18:34.023Z,84136.16
2023-04-10T02:21:37.785Z,84137.75
2023-04-10T02:24:40.272Z,84131.44
2023-04-10T02:27:43.041Z,84127.47
2023-04-10T02:30:45.619Z,84136.16
2023-04-10T02:33:48.502Z,84140.94
2023-04-10T02:36:50.823Z,84136.16
2023-04-10T02:39:57.561Z,84136.16
2023-04-10T02:43:01.036Z,84122.00
2023-04-10T02:46:03.912Z,84125.13
2023-04-10T02:49:08.811Z,84134.59
2023-04-10T02:52:11.718Z,84126.69
2023-04-10T02:55:14.240Z,84129.09
2023-04-10T02:58:17.440Z,84119.59
2023-04-10T03:01:19.814Z,84118.81
2023-04-10T03:04:22.700Z,84120.41
2023-04-10T03:07:25.244Z,84126.69
2023-04-10T03:10:28.119Z,84125.94
2023-04-10T03:13:30.692Z,84131.44
2023-04-10T03:16:33.632Z,84133.00
2023-04-10T03:19:38.413Z,84131.47
2023-04-10T03:22:41.814Z,84128.28
2023-04-10T03:25:44.454Z,84131.44
2023-04-10T03:28:47.357Z,84137.75
2023-04-10T03:31:49.763Z,84140.91
2023-04-10T03:34:52.491Z,84148.81
2023-04-10T03:37:55.068Z,84143.28
2023-04-10T03:40:57.771Z,84145.69
2023-04-10T03:44:03.307Z,84147.22
2023-04-10T03:47:05.986Z,84150.44
2023-04-10T03:50:09.309Z,84148.81
2023-04-10T03:53:12.707Z,84148.81
2023-04-10T03:56:15.593Z,84148.03
2023-04-10T03:59:19.054Z,84167.75
2023-04-10T04:02:21.755Z,84158.31
2023-04-10T04:05:25.809Z,84156.72
2023-04-10T04:08:29.170Z,84160.66
2023-04-10T04:11:32.858Z,84163.03
2023-04-10T04:14:35.642Z,84171.72
2023-04-10T04:17:40.020Z,84175.66
2023-04-10T04:20:46.983Z,84172.53
2023-04-10T04:23:49.932Z,84170.94
2023-04-10T04:26:57.633Z,84175.66
2023-04-10T04:30:02.589Z,84174.88
2023-04-10T04:33:10.325Z,84176.47
2023-04-10T04:36:15.479Z,84178.81
2023-04-10T04:39:18.045Z,84177.25
2023-04-10T04:42:21.753Z,84189.91
2023-04-10T04:45:25.053Z,84196.19
2023-04-10T04:48:28.767Z,84204.06
2023-04-10T04:51:31.823Z,84193.03
2023-04-10T04:54:35.231Z,84194.59
2023-04-10T04:57:42.184Z,84191.47
2023-04-10T05:00:45.219Z,84192.25
2023-04-10T05:03:48.075Z,84186.69
2023-04-10T05:06:51.758Z,84189.84
2023-04-10T05:09:54.239Z,84188.28
2023-04-10T05:12:57.120Z,84189.84
2023-04-10T05:15:59.706Z,84186.69
2023-04-10T05:19:02.777Z,84183.53
2023-04-10T05:22:12.130Z,84179.59
2023-04-10T05:25:16.843Z,84174.88
2023-04-10T05:28:23.453Z,84170.13
2023-04-10T05:31:27.883Z,84160.63
2023-04-10T05:34:30.725Z,84159.84
2023-04-10T05:37:34.627Z,84156.69
2023-04-10T05:40:37.258Z,84150.38
2023-04-10T05:43:43.436Z,84145.63
2023-04-10T05:46:46.074Z,84136.12
2023-04-10T05:49:48.990Z,84133.78
2023-04-10T05:52:51.878Z,84125.06
2023-04-10T05:55:56.697Z,84121.91
2023-04-10T05:58:59.430Z,84121.91
2023-04-10T06:02:02.926Z,84112.44
2023-04-10T06:05:05.894Z,84104.53
2023-04-10T06:08:08.773Z,84098.22
2023-04-10T06:11:11.557Z,84081.63
2023-04-10T06:14:15.816Z,84074.53
2023-04-10T06:17:21.366Z,84065.06
2023-04-10T06:20:24.184Z,84061.88
2023-04-10T06:23:27.949Z,84049.97
2023-04-10T06:26:30.509Z,84046.03
2023-04-10T06:29:33.243Z,84031.81
2023-04-10T06:32:35.932Z,83987.53
2023-04-10T06:35:38.981Z,83962.19
2023-04-10T06:38:41.913Z,83860.91
2023-04-10T06:41:44.719Z,83757.84
2023-04-10T06:44:48.641Z,83662.72
2023-04-10T06:47:51.931Z,83570.75
2023-04-10T06:50:54.279Z,83503.22
2023-04-10T06:53:56.967Z,83459.50
2023-04-10T06:56:59.269Z,83373.72
2023-04-10T07:00:02.164Z,83339.47
2023-04-10T07:03:04.547Z,83302.91
2023-04-10T07:06:08.400Z,83256.78
2023-04-10T07:09:10.715Z,83215.44
2023-04-10T07:12:13.348Z,83174.75
2023-04-10T07:15:16.248Z,83149.37
2023-04-10T07:18:18.962Z,83136.53
2023-04-10T07:21:21.479Z,83115.81
2023-04-10T07:24:24.612Z,83083.13
2023-04-10T07:27:28.064Z,83036.16
2023-04-10T07:30:30.925Z,83040.16
2023-04-10T07:33:33.355Z,83025.00
2023-04-10T07:36:36.547Z,82986.75
2023-04-10T07:39:38.921Z,82972.41
2023-04-10T07:42:41.607Z,82924.53
2023-04-10T07:45:44.096Z,82897.44
2023-04-10T07:48:50.168Z,82879.12
2023-04-10T07:51:52.579Z,82867.09
2023-04-10T07:54:55.241Z,82877.47
2023-04-10T07:57:57.578Z,82873.50
2023-04-10T08:01:00.471Z,82844.00
2023-04-10T08:04:05.663Z,82824.13
2023-04-10T08:07:08.455Z,82808.09
2023-04-10T08:10:11.224Z,82798.59
2023-04-10T08:13:13.601Z,82819.31
2023-04-10T08:16:16.314Z,82766.59
2023-04-10T08:19:18.812Z,82777.88
2023-04-10T08:22:21.676Z,82785.84
2023-04-10T08:25:24.112Z,82776.13
2023-04-10T08:28:27.124Z,82744.16
2023-04-10T08:31:30.074Z,82752.25
2023-04-10T08:34:32.880Z,82707.50
2023-04-10T08:37:35.250Z,82638.69
2023-04-10T08:40:38.637Z,82677.19
2023-04-10T08:43:41.205Z,82676.37
2023-04-10T08:46:46.077Z,82675.63
2023-04-10T08:49:57.389Z,82678.72
2023-04-10T08:53:03.707Z,82648.41
2023-04-10T08:56:07.840Z,82662.81
2023-04-10T08:59:10.726Z,82571.63
2023-04-10T09:02:13.331Z,82587.53
2023-04-10T09:05:16.098Z,82569.91
2023-04-10T09:08:18.456Z,82587.63
2023-04-10T09:11:21.449Z,82590.84
2023-04-10T09:14:25.745Z,82634.03
2023-04-10T09:17:28.567Z,82605.34
2023-04-10T09:20:33.543Z,82615.72
2023-04-10T09:23:36.583Z,82659.75
2023-04-10T09:26:38.924Z,82635.72
2023-04-10T09:29:41.534Z,82605.38
2023-04-10T09:32:46.673Z,82573.38
2023-04-10T09:35:50.131Z,82528.59
2023-04-10T09:38:54.655Z,82556.72
2023-04-10T09:41:57.392Z,82653.47
2023-04-10T09:45:01.213Z,82725.38
2023-04-10T09:48:08.650Z,82749.41
2023-04-10T09:51:30.057Z,82763.84
2023-04-10T09:54:39.512Z,82779.75
2023-04-10T09:57:42.194Z,82710.41
2023-04-10T10:00:47.889Z,82674.38
2023-04-10T10:03:50.957Z,82659.22
2023-04-10T10:06:53.613Z,82693.59
2023-04-10T10:09:57.741Z,82742.38
2023-04-10T10:13:02.270Z,82763.97
2023-04-10T10:16:26.635Z,82808.66
2023-04-10T10:19:43.024Z,82842.25
2023-04-10T10:22:47.420Z,82861.44
2023-04-10T10:25:51.344Z,82890.19
2023-04-10T10:28:56.221Z,82886.16
2023-04-10T10:32:02.944Z,82893.38
2023-04-10T10:35:08.094Z,82955.63
2023-04-10T10:38:10.688Z,82950.81
2023-04-10T10:41:18.729Z,82944.44
2023-04-10T10:44:34.554Z,82966.00
2023-04-10T10:47:51.246Z,82955.56
2023-04-10T10:51:00.448Z,82955.63
2023-04-10T10:54:03.216Z,82966.72
2023-04-10T10:57:44.163Z,82973.13
2023-04-10T11:00:52.852Z,82954.03
2023-04-10T11:03:55.489Z,82968.38
2023-04-10T11:06:58.241Z,82987.50
2023-04-10T11:10:01.154Z,82985.97
2023-04-10T11:13:17.951Z,82992.25
2023-04-10T11:16:22.074Z,82997.94
2023-04-10T11:19:26.178Z,83004.25
2023-04-10T11:22:29.084Z,83022.66
2023-04-10T11:25:53.636Z,83046.50
2023-04-10T11:28:56.399Z,83051.31
2023-04-10T11:32:01.994Z,83054.44
2023-04-10T11:35:05.862Z,83051.28
2023-04-10T11:38:10.307Z,83035.44
2023-04-10T11:41:12.650Z,83073.59
2023-04-10T11:44:26.731Z,83079.19
2023-04-10T11:47:29.187Z,83067.22
2023-04-10T11:50:36.085Z,83068.97
2023-04-10T11:53:39.616Z,83064.91
2023-04-10T11:56:44.486Z,83080.06
2023-04-10T11:59:50.553Z,83075.16
2023-04-10T12:02:53.959Z,83060.81
2023-04-10T12:05:56.909Z,83048.06
2023-04-10T12:08:59.332Z,83056.06
2023-04-10T12:12:06.700Z,83037.06
2023-04-10T12:15:30.907Z,83018.69
2023-04-10T12:18:34.388Z,83006.75
2023-04-10T12:21:37.175Z,83022.78
2023-04-10T12:24:50.802Z,83032.28
2023-04-10T12:27:53.208Z,83065.72
2023-04-10T12:30:56.757Z,83066.56
2023-04-10T12:34:00.925Z,83070.59
2023-04-10T12:37:04.628Z,83026.03
2023-04-10T12:40:07.800Z,83032.53
2023-04-10T12:43:10.775Z,82996.66
2023-04-10T12:46:25.123Z,83000.69
2023-04-10T12:49:27.843Z,82997.53
2023-04-10T12:52:30.524Z,82939.38
2023-04-10T12:55:33.314Z,82951.44
2023-04-10T12:58:35.689Z,82954.59
2023-04-10T13:01:39.644Z,82925.91
2023-04-10T13:04:42.280Z,82929.09
2023-04-10T13:07:45.089Z,82925.12
2023-04-10T13:10:47.417Z,82909.28
2023-04-10T13:13:50.085Z,82890.09
2023-04-10T13:16:52.450Z,82887.75
2023-04-10T13:19:55.079Z,82927.63
2023-04-10T13:22:57.526Z,82911.75
2023-04-10T13:26:00.311Z,82915.00
2023-04-10T13:29:03.785Z,82887.06
2023-04-10T13:32:06.631Z,82864.03
2023-04-10T13:35:09.308Z,82841.72
2023-04-10T13:38:12.041Z,82862.50
2023-04-10T13:41:14.443Z,82821.00
2023-04-10T13:44:17.047Z,82817.09
2023-04-10T13:47:19.367Z,82805.87
2023-04-10T13:50:22.068Z,82810.69
2023-04-10T13:53:24.489Z,82800.41
2023-04-10T13:56:27.180Z,82782.94
2023-04-10T13:59:29.605Z,82798.94
2023-04-10T14:02:33.954Z,82804.41
2023-04-10T14:05:36.966Z,82797.31
2023-04-10T14:08:39.352Z,82843.56
2023-04-10T14:11:42.048Z,82885.16
2023-04-10T14:14:45.038Z,82835.72
2023-04-10T14:17:47.769Z,82810.22
2023-04-10T14:20:50.165Z,82811.00
2023-04-10T14:23:53.020Z,82775.25
2023-04-10T14:26:58.301Z,82776.81
2023-04-10T14:30:01.179Z,82787.97
2023-04-10T14:33:03.533Z,82789.63
2023-04-10T14:36:06.754Z,82826.38
2023-04-10T14:39:09.276Z,82800.81
2023-04-10T14:42:11.984Z,82817.56
2023-04-10T14:45:14.486Z,82792.94
2023-04-10T14:48:19.830Z,82823.22
2023-04-10T14:51:23.602Z,82797.84
2023-04-10T14:54:26.508Z,82800.97
2023-04-10T14:57:29.817Z,82789.78
2023-04-10T15:00:33.228Z,82789.06
2023-04-10T15:03:35.870Z,82786.59
2023-04-10T15:06:38.661Z,82778.69
2023-04-10T15:09:41.210Z,82795.47
2023-04-10T15:12:44.038Z,82793.06
2023-04-10T15:15:48.363Z,82800.25
2023-04-10T15:18:51.145Z,82804.28
2023-04-10T15:21:54.510Z,82804.41
2023-04-10T15:24:57.441Z,82797.94
2023-04-10T15:28:01.393Z,82808.47
2023-04-10T15:31:05.054Z,82802.78
2023-04-10T15:34:09.146Z,82805.97
2023-04-10T15:37:12.005Z,82791.75
2023-04-10T15:40:14.568Z,82796.47
2023-04-10T15:43:17.649Z,82812.47
2023-04-10T15:46:20.142Z,82826.00
2023-04-10T15:49:33.975Z,82825.19
2023-04-10T15:52:39.866Z,82825.25
2023-04-10T15:55:42.580Z,82821.22
2023-04-10T15:58:44.983Z,82825.22
2023-04-10T16:01:51.940Z,82817.28
2023-04-10T16:04:54.902Z,82814.84
2023-04-10T16:07:57.350Z,82806.19
2023-04-10T16:11:00.062Z,82806.25
2023-04-10T16:14:02.670Z,82798.28
2023-04-10T16:17:05.484Z,82791.91
2023-04-10T16:20:08.200Z,82790.28
2023-04-10T16:23:10.958Z,82794.25
2023-04-10T16:26:13.423Z,82806.19
2023-04-10T16:29:18.351Z,82815.75
2023-04-10T16:32:21.272Z,82822.16
2023-04-10T16:35:23.973Z,82828.56
2023-04-10T16:38:26.466Z,82841.34
2023-04-10T16:41:29.194Z,82848.47
2023-04-10T16:44:34.819Z,82855.62
2023-04-10T16:47:38.457Z,82858.87
2023-04-10T16:50:40.908Z,82849.38
2023-04-10T16:53:43.888Z,82851.75
2023-04-10T16:56:46.554Z,82854.06
2023-04-10T16:59:49.528Z,82856.47
2023-04-10T17:02:52.455Z,82862.03
2023-04-10T17:05:55.220Z,82859.66
2023-04-10T17:08:57.968Z,82862.09
2023-04-10T17:12:01.029Z,82870.09
2023-04-10T17:15:04.026Z,82871.69
2023-04-10T17:18:06.821Z,82881.19
2023-04-10T17:21:13.185Z,82887.63
2023-04-10T17:24:17.417Z,82892.34
2023-04-10T17:27:19.848Z,82893.12
2023-04-10T17:30:22.457Z,82894.00
2023-04-10T17:33:24.845Z,82903.50
2023-04-10T17:36:29.397Z,82909.03
2023-04-10T17:39:31.964Z,82912.25
2023-04-10T17:42:34.726Z,82917.00
2023-04-10T17:45:38.450Z,82920.94
2023-04-10T17:48:44.902Z,82920.16
2023-04-10T17:51:47.587Z,82918.63
2023-04-10T17:54:50.374Z,82924.91
2023-04-10T17:57:53.703Z,82924.12
2023-04-10T18:00:56.699Z,82940.03
2023-04-10T18:04:00.270Z,82943.22
2023-04-10T18:07:02.745Z,82948.06
2023-04-10T18:10:09.821Z,82952.72
2023-04-10T18:13:13.638Z,82956.66
2023-04-10T18:16:17.612Z,82978.22
2023-04-10T18:19:19.999Z,82998.84
2023-04-10T18:22:22.725Z,83005.25
2023-04-10T18:25:25.050Z,83025.97
2023-04-10T18:28:27.783Z,83035.44
2023-04-10T18:31:30.259Z,83033.13
2023-04-10T18:34:32.948Z,83025.91
2023-04-10T18:37:35.366Z,83027.47
2023-04-10T18:40:37.937Z,83030.72
2023-04-10T18:43:40.382Z,83029.19
2023-04-10T18:46:46.233Z,83036.22
2023-04-10T18:49:50.839Z,83029.06
2023-04-10T18:52:53.948Z,83026.69
2023-04-10T18:55:56.425Z,83025.03
2023-04-10T18:58:59.273Z,83033.72
2023-04-10T19:02:01.733Z,83062.34
2023-04-10T19:05:04.876Z,83072.72
2023-04-10T19:08:07.330Z,83080.59
2023-04-10T19:11:10.469Z,83080.63
2023-04-10T19:14:12.818Z,83081.44
2023-04-10T19:17:15.896Z,83108.44
2023-04-10T19:20:18.564Z,83125.22
2023-04-10T19:23:41.456Z,83137.12
2023-04-10T19:26:43.958Z,83159.38
2023-04-10T19:29:46.660Z,83148.25
2023-04-10T19:32:49.170Z,83141.94
2023-04-10T19:35:51.903Z,83159.34
2023-04-10T19:38:57.276Z,83167.34
2023-04-10T19:42:00.427Z,83181.69
2023-04-10T19:45:03.047Z,83186.41
2023-04-10T19:48:08.107Z,83176.88
2023-04-10T19:51:10.533Z,83162.63
2023-04-10T19:54:13.292Z,83158.72
2023-04-10T19:57:15.763Z,83149.94
2023-04-10T20:00:18.624Z,83145.22
2023-04-10T20:03:26.837Z,83151.53
2023-04-10T20:06:29.313Z,83159.44
2023-04-10T20:09:31.925Z,83165.81
2023-04-10T20:12:34.399Z,83173.06
2023-04-10T20:15:37.196Z,83177.00
2023-04-10T20:18:39.525Z,83183.31
2023-04-10T20:21:42.282Z,83186.50
2023-04-10T20:24:44.718Z,83175.38
2023-04-10T20:27:47.377Z,83173.84
2023-04-10T20:30:49.703Z,83172.22
2023-04-10T20:33:54.346Z,83173.88
2023-04-10T20:36:56.841Z,83173.78
2023-04-10T20:39:59.675Z,83173.84
2023-04-10T20:43:02.057Z,83182.56
2023-04-10T20:46:10.763Z,83185.00
2023-04-10T20:49:15.915Z,83198.50
2023-04-10T20:52:18.490Z,83204.13
2023-04-10T20:55:20.919Z,83210.44
2023-04-10T20:58:23.655Z,83213.62
2023-04-10T21:01:31.864Z,83218.34
2023-04-10T21:04:34.643Z,83227.88
2023-04-10T21:07:36.968Z,83226.28
2023-04-10T21:10:46.047Z,83217.59
2023-04-10T21:13:49.187Z,83227.94
2023-04-10T21:16:51.933Z,83243.78
2023-04-10T21:19:54.386Z,83243.03
2023-04-10T21:22:57.178Z,83250.22
2023-04-10T21:26:01.020Z,83243.81
2023-04-10T21:29:03.704Z,83243.03
2023-04-10T21:32:06.271Z,83243.88
2023-04-10T21:35:09.325Z,83248.63
2023-04-10T21:38:12.294Z,83256.56
2023-04-10T21:41:15.505Z,83270.81
2023-04-10T21:44:18.207Z,83277.97
2023-04-10T21:47:20.861Z,83280.34
2023-04-10T21:50:25.174Z,83286.72
2023-04-10T21:53:27.851Z,83288.31
2023-04-10T21:56:30.519Z,83283.63
2023-04-10T21:59:33.347Z,83296.28
2023-04-10T22:02:36.066Z,83298.66
2023-04-10T22:05:38.849Z,83320.12
2023-04-10T22:08:41.410Z,83315.34
2023-04-10T22:11:44.066Z,83309.78
2023-04-10T22:14:46.563Z,83313.81
2023-04-10T22:17:49.310Z,83323.31
2023-04-10T22:20:51.726Z,83320.16
2023-04-10T22:23:54.618Z,83317.78
2023-04-10T22:26:56.999Z,83324.13
2023-04-10T22:30:04.004Z,83331.25
2023-04-10T22:33:07.014Z,83337.56
2023-04-10T22:36:09.987Z,83348.69
2023-04-10T22:39:13.204Z,83341.56
2023-04-10T22:42:15.845Z,83347.13
2023-04-10T22:45:18.228Z,83340.78
2023-04-10T22:48:21.072Z,83350.34
2023-04-10T22:51:23.485Z,83356.66
2023-04-10T22:54:28.410Z,83366.19
2023-04-10T22:57:30.728Z,83370.94
2023-04-10T23:00:34.625Z,83374.09
2023-04-10T23:03:37.249Z,83377.28
2023-04-10T23:06:40.287Z,83386.00
2023-04-10T23:09:42.600Z,83385.22
2023-04-10T23:12:45.264Z,83389.94
2023-04-10T23:15:54.451Z,83386.84
2023-04-10T23:18:57.213Z,83401.13
2023-04-10T23:21:59.702Z,83405.84
2023-04-10T23:25:02.309Z,83406.69
2023-04-10T23:28:04.985Z,83410.59
2023-04-10T23:31:09.124Z,83423.34
2023-04-10T23:34:11.589Z,83420.12
2023-04-10T23:37:14.334Z,83432.81
2023-04-10T23:40:17.963Z,83428.12
2023-04-10T23:43:20.680Z,83423.34
2023-04-10T23:46:23.042Z,83440.75
2023-04-10T23:49:25.771Z,83440.78
2023-04-10T23:52:28.542Z,83448.66
2023-04-10T23:55:31.120Z,83443.94
2023-04-10T23:58:33.473Z,83452.63
